Time;durP1;ratioP1;P1;durP2;ratioP2;P2;SDS_P1;SDS_P2;PMS_P1;PMS_P2;Temp;Humidity;BMP_temperature;BMP_pressure;BME280_temperature;BME280_humidity;BME280_pressure;Samples;Min_cycle;Max_cycle;Signal;HPM_P1;HPM_P2
2021/10/11 00:00:34;;;;;;;9.00;8.30;;;;;19.30;101398.00;;;;2096112;28;20212;-54
2021/10/11 00:01:35;;;;;;;9.17;8.37;;;;;19.30;101392.00;;;;2092374;28;20220;-53
2021/10/11 00:02:35;;;;;;;9.13;8.33;;;;;19.20;101386.00;;;;2090937;28;20219;-54
2021/10/11 00:03:36;;;;;;;9.13;8.33;;;;;19.20;101390.00;;;;2095211;28;20219;-54
2021/10/11 00:04:38;;;;;;;8.63;7.90;;;;;19.20;101395.00;;;;2092088;28;20217;-54
2021/10/11 00:05:38;;;;;;;8.15;7.55;;;;;19.20;101385.00;;;;2089125;28;20220;-55
2021/10/11 00:06:39;;;;;;;8.90;8.10;;;;;19.30;101402.00;;;;2091930;28;20219;-55
2021/10/11 00:07:41;;;;;;;8.40;7.70;;;;;19.20;101399.00;;;;2096104;28;20239;-55
2021/10/11 00:08:41;;;;;;;8.43;7.72;;;;;19.20;101405.00;;;;2095962;28;20489;-54
2021/10/11 00:09:42;;;;;;;8.90;8.10;;;;;19.20;101399.00;;;;2089695;28;20587;-53
2021/10/11 00:10:43;;;;;;;7.93;7.33;;;;;19.20;101406.00;;;;2087844;28;21120;-53
2021/10/11 00:11:43;;;;;;;9.10;8.33;;;;;19.20;101408.00;;;;2090915;28;20504;-54
2021/10/11 00:12:44;;;;;;;8.87;8.17;;;;;19.30;101410.00;;;;2096096;28;20216;-53
2021/10/11 00:13:44;;;;;;;8.90;8.20;;;;;19.20;101414.00;;;;2086752;28;20229;-53
2021/10/11 00:14:44;;;;;;;8.00;7.30;;;;;19.30;101411.00;;;;2088552;28;20231;-54
2021/10/11 00:15:45;;;;;;;9.50;8.70;;;;;19.20;101410.00;;;;2091080;28;20231;-54
2021/10/11 00:16:45;;;;;;;8.47;7.77;;;;;19.20;101416.00;;;;2092275;28;20242;-53
2021/10/11 00:17:46;;;;;;;9.37;8.57;;;;;19.30;101415.00;;;;2092309;28;20265;-54
2021/10/11 00:18:46;;;;;;;8.67;7.97;;;;;19.30;101416.00;;;;2089446;28;20221;-54
2021/10/11 00:19:50;;;;;;;8.50;7.90;;;;;19.30;101416.00;;;;2094255;28;20216;-54
2021/10/11 00:20:51;;;;;;;8.60;7.90;;;;;19.30;101414.00;;;;2095600;28;20216;-54
2021/10/11 00:21:52;;;;;;;9.23;8.43;;;;;19.20;101410.00;;;;2091962;28;20619;-53
2021/10/11 00:22:52;;;;;;;8.77;8.07;;;;;19.20;101412.00;;;;2087695;28;20447;-53
2021/10/11 00:23:52;;;;;;;8.37;7.67;;;;;19.30;101424.00;;;;2093149;28;20693;-54
2021/10/11 00:24:53;;;;;;;8.80;8.10;;;;;19.20;101422.00;;;;2089875;28;20205;-54
2021/10/11 00:25:53;;;;;;;8.87;8.17;;;;;19.20;101420.00;;;;2093180;28;20208;-54
2021/10/11 00:26:54;;;;;;;8.53;7.77;;;;;19.20;101421.00;;;;2093230;28;20212;-54
2021/10/11 00:27:54;;;;;;;7.70;7.10;;;;;19.20;101412.00;;;;2092697;28;20224;-54
2021/10/11 00:28:54;;;;;;;8.63;7.93;;;;;19.30;101416.00;;;;2091936;28;20684;-53
2021/10/11 00:29:55;;;;;;;8.80;8.00;;;;;19.20;101416.00;;;;2085239;28;20729;-53
2021/10/11 00:30:56;;;;;;;8.10;7.40;;;;;19.20;101413.00;;;;2094535;28;20216;-54
2021/10/11 00:31:56;;;;;;;8.33;7.63;;;;;19.20;101417.00;;;;2087797;28;20614;-54
2021/10/11 00:32:56;;;;;;;8.33;7.63;;;;;19.20;101411.00;;;;2092624;28;20216;-54
2021/10/11 00:33:57;;;;;;;8.80;8.10;;;;;19.20;101411.00;;;;2089441;28;20224;-54
2021/10/11 00:34:57;;;;;;;7.63;6.93;;;;;19.30;101408.00;;;;2095037;28;20223;-54
2021/10/11 00:35:57;;;;;;;9.53;8.73;;;;;19.30;101399.00;;;;2093324;28;20558;-54
2021/10/11 00:36:58;;;;;;;8.27;7.67;;;;;19.20;101405.00;;;;2084498;28;20570;-54
2021/10/11 00:37:58;;;;;;;7.80;7.20;;;;;19.20;101405.00;;;;2087598;28;20239;-53
2021/10/11 00:38:58;;;;;;;8.77;7.97;;;;;19.20;101407.00;;;;2091261;28;20212;-54
2021/10/11 00:39:59;;;;;;;8.13;7.50;;;;;19.20;101402.00;;;;2088414;28;20241;-53
2021/10/11 00:40:59;;;;;;;8.40;7.70;;;;;19.30;101405.00;;;;2090891;28;20308;-53
2021/10/11 00:42:00;;;;;;;8.73;8.03;;;;;19.20;101404.00;;;;2087283;28;20212;-53
2021/10/11 00:43:00;;;;;;;7.77;7.17;;;;;19.30;101405.00;;;;2093240;28;20220;-54
2021/10/11 00:44:00;;;;;;;9.47;8.73;;;;;19.20;101403.00;;;;2090067;28;20212;-53
2021/10/11 00:45:01;;;;;;;8.37;7.67;;;;;19.20;101406.00;;;;2087214;28;20274;-54
2021/10/11 00:46:01;;;;;;;8.57;7.80;;;;;19.30;101406.00;;;;2094640;28;20705;-53
2021/10/11 00:47:02;;;;;;;8.43;7.73;;;;;19.30;101405.00;;;;2090197;28;20227;-54
2021/10/11 00:48:02;;;;;;;7.77;7.13;;;;;19.30;101407.00;;;;2086864;28;20784;-54
2021/10/11 00:49:03;;;;;;;9.03;8.33;;;;;19.30;101411.00;;;;2094619;28;20253;-53
2021/10/11 00:50:03;;;;;;;8.10;7.43;;;;;19.30;101401.00;;;;2093371;28;20228;-53
2021/10/11 00:51:05;;;;;;;8.97;8.27;;;;;19.30;101407.00;;;;2092760;28;20673;-53
2021/10/11 00:52:05;;;;;;;9.10;8.30;;;;;19.20;101405.00;;;;2095274;28;20220;-53
2021/10/11 00:53:06;;;;;;;8.77;8.07;;;;;19.30;101411.00;;;;2090777;28;20719;-54
2021/10/11 00:54:06;;;;;;;8.00;7.40;;;;;19.20;101402.00;;;;2094995;28;20611;-54
2021/10/11 00:55:07;;;;;;;8.50;7.80;;;;;19.20;101410.00;;;;2086643;28;20326;-53
2021/10/11 00:56:07;;;;;;;8.50;7.80;;;;;19.30;101405.00;;;;2094542;28;20702;-54
2021/10/11 00:57:07;;;;;;;9.10;8.30;;;;;19.20;101407.00;;;;2079332;28;20224;-53
2021/10/11 00:58:08;;;;;;;8.47;7.77;;;;;19.30;101407.00;;;;2083054;28;20216;-54
2021/10/11 00:59:08;;;;;;;8.33;7.73;;;;;19.30;101406.00;;;;2087002;28;20221;-54
2021/10/11 01:00:09;;;;;;;8.53;7.83;;;;;19.30;101406.00;;;;2092899;28;20216;-53
2021/10/11 01:01:09;;;;;;;8.23;7.60;;;;;19.20;101403.00;;;;2082091;28;20881;-53
2021/10/11 01:02:10;;;;;;;9.23;8.47;;;;;19.30;101400.00;;;;2091013;28;20708;-53
2021/10/11 01:03:10;;;;;;;8.60;7.70;;;;;19.30;101406.00;;;;2091427;28;20220;-54
2021/10/11 01:04:11;;;;;;;7.97;7.37;;;;;19.20;101406.00;;;;2084070;28;20213;-53
2021/10/11 01:05:11;;;;;;;8.57;7.87;;;;;19.20;101410.00;;;;2078275;28;20229;-53
2021/10/11 01:06:12;;;;;;;7.90;7.30;;;;;19.20;101407.00;;;;2090128;28;20685;-53
2021/10/11 01:07:12;;;;;;;8.37;7.67;;;;;19.20;101400.00;;;;2091220;28;20711;-53
2021/10/11 01:08:13;;;;;;;8.90;8.20;;;;;19.30;101400.00;;;;2091351;28;20665;-54
2021/10/11 01:09:13;;;;;;;8.80;8.10;;;;;19.20;101406.00;;;;2090827;28;20689;-54
2021/10/11 01:10:13;;;;;;;8.23;7.63;;;;;19.20;101404.00;;;;2087651;28;20678;-53
2021/10/11 01:11:14;;;;;;;8.33;7.63;;;;;19.20;101404.00;;;;2091170;28;20227;-54
2021/10/11 01:12:14;;;;;;;8.27;7.57;;;;;19.20;101406.00;;;;2091021;28;20216;-53
2021/10/11 01:13:15;;;;;;;8.17;7.47;;;;;19.30;101407.00;;;;2095406;28;20392;-54
2021/10/11 01:14:15;;;;;;;8.67;7.97;;;;;19.30;101402.00;;;;2088295;28;20296;-54
2021/10/11 01:15:16;;;;;;;8.83;8.13;;;;;19.20;101402.00;;;;2093628;28;20640;-54
2021/10/11 01:16:16;;;;;;;7.97;7.30;;;;;19.20;101404.00;;;;2089270;28;20293;-54
2021/10/11 01:17:16;;;;;;;8.50;7.80;;;;;19.20;101400.00;;;;2091486;28;20227;-54
2021/10/11 01:18:17;;;;;;;8.70;8.00;;;;;19.20;101399.00;;;;2093565;28;20219;-54
2021/10/11 01:19:18;;;;;;;7.97;7.37;;;;;19.20;101404.00;;;;2094560;28;20224;-54
2021/10/11 01:20:18;;;;;;;9.53;8.73;;;;;19.20;101402.00;;;;2095239;28;20465;-53
2021/10/11 01:21:19;;;;;;;8.67;7.97;;;;;19.20;101407.00;;;;2094320;28;20689;-55
2021/10/11 01:22:19;;;;;;;8.05;7.45;;;;;19.30;101404.00;;;;2090201;28;20224;-53
2021/10/11 01:23:25;;;;;;;8.60;7.90;;;;;19.30;101407.00;;;;2091395;28;20603;-54
2021/10/11 01:24:25;;;;;;;8.10;7.43;;;;;19.20;101407.00;;;;2089294;28;21018;-53
2021/10/11 01:25:25;;;;;;;7.73;7.13;;;;;19.20;101408.00;;;;2087147;28;20213;-54
2021/10/11 01:26:36;;;;;;;8.80;8.10;;;;;19.30;101406.00;;;;2090091;28;20224;-53
2021/10/11 01:27:37;;;;;;;8.10;7.40;;;;;19.30;101412.00;;;;2086212;28;20865;-54
2021/10/11 01:28:37;;;;;;;8.50;7.70;;;;;19.30;101406.00;;;;2092408;28;20212;-54
2021/10/11 01:29:38;;;;;;;8.10;7.50;;;;;19.30;101406.00;;;;2085660;28;20277;-54
2021/10/11 01:30:39;;;;;;;8.80;8.10;;;;;19.30;101399.00;;;;2091463;28;20219;-54
2021/10/11 01:31:40;;;;;;;8.50;7.70;;;;;19.20;101411.00;;;;2085361;28;20635;-54
2021/10/11 01:32:41;;;;;;;8.40;7.70;;;;;19.20;101406.00;;;;2091362;28;20220;-54
2021/10/11 01:33:41;;;;;;;8.23;7.60;;;;;19.20;101405.00;;;;2080012;28;20293;-54
2021/10/11 01:34:41;;;;;;;9.30;8.50;;;;;19.30;101409.00;;;;2094705;28;20209;-54
2021/10/11 01:35:42;;;;;;;8.20;7.50;;;;;19.20;101408.00;;;;2092485;28;20216;-54
2021/10/11 01:36:42;;;;;;;8.43;7.73;;;;;19.20;101402.00;;;;2092445;28;20231;-54
2021/10/11 01:37:42;;;;;;;8.10;7.40;;;;;19.20;101403.00;;;;2093554;28;20273;-53
2021/10/11 01:38:43;;;;;;;8.73;8.00;;;;;19.20;101402.00;;;;2090553;28;20218;-53
2021/10/11 01:39:43;;;;;;;8.43;7.73;;;;;19.30;101399.00;;;;2087333;28;20228;-53
2021/10/11 01:40:44;;;;;;;8.20;7.60;;;;;19.20;101400.00;;;;2090013;28;20815;-54
2021/10/11 01:41:45;;;;;;;9.00;8.30;;;;;19.20;101394.00;;;;2088211;28;20209;-54
2021/10/11 01:42:45;;;;;;;8.33;7.63;;;;;19.30;101399.00;;;;2091307;28;20204;-54
2021/10/11 01:43:45;;;;;;;9.93;9.03;;;;;19.30;101400.00;;;;2094622;28;20711;-53
2021/10/11 01:44:46;;;;;;;8.20;7.60;;;;;19.30;101392.00;;;;2087069;28;20243;-54
2021/10/11 01:45:48;;;;;;;8.63;7.93;;;;;19.20;101395.00;;;;2090694;28;20243;-54
2021/10/11 01:46:48;;;;;;;8.32;7.65;;;;;19.30;101393.00;;;;2088730;28;20311;-54
2021/10/11 01:47:48;;;;;;;8.30;7.60;;;;;19.30;101396.00;;;;2087165;28;21199;-54
2021/10/11 01:48:49;;;;;;;9.03;8.33;;;;;19.30;101388.00;;;;2087614;28;20266;-54
2021/10/11 01:49:49;;;;;;;8.80;7.93;;;;;19.20;101397.00;;;;2087040;28;20580;-54
2021/10/11 01:50:49;;;;;;;8.50;7.80;;;;;19.30;101392.00;;;;2087134;28;20216;-53
2021/10/11 01:51:50;;;;;;;8.03;7.40;;;;;19.30;101390.00;;;;2091890;28;20216;-53
2021/10/11 01:52:50;;;;;;;8.60;7.90;;;;;19.30;101389.00;;;;2091643;28;20296;-54
2021/10/11 01:53:51;;;;;;;8.20;7.50;;;;;19.30;101394.00;;;;2093990;28;20212;-54
2021/10/11 01:54:52;;;;;;;8.83;8.03;;;;;19.20;101398.00;;;;2093100;28;20220;-54
2021/10/11 01:55:52;;;;;;;8.73;8.00;;;;;19.30;101396.00;;;;2089119;28;20213;-55
2021/10/11 01:56:53;;;;;;;8.00;7.40;;;;;19.30;101385.00;;;;2089426;28;20204;-55
2021/10/11 01:57:53;;;;;;;8.33;7.63;;;;;19.20;101384.00;;;;2088455;28;20209;-54
2021/10/11 01:58:53;;;;;;;8.70;7.90;;;;;19.30;101391.00;;;;2090807;28;20209;-53
2021/10/11 01:59:54;;;;;;;9.40;8.67;;;;;19.30;101387.00;;;;2095536;28;20265;-53
2021/10/11 02:00:55;;;;;;;7.90;7.30;;;;;19.20;101384.00;;;;2095644;28;20324;-54
2021/10/11 02:01:55;;;;;;;8.20;7.60;;;;;19.20;101386.00;;;;2095406;28;20287;-54
2021/10/11 02:02:55;;;;;;;8.60;7.90;;;;;19.30;101388.00;;;;2095568;28;20220;-53
2021/10/11 02:03:56;;;;;;;9.30;8.50;;;;;19.30;101390.00;;;;2093525;28;20239;-54
2021/10/11 02:04:56;;;;;;;8.93;8.23;;;;;19.30;101388.00;;;;2091372;28;20225;-54
2021/10/11 02:05:57;;;;;;;8.80;8.10;;;;;19.30;101388.00;;;;2094437;28;20853;-54
2021/10/11 02:06:57;;;;;;;9.27;8.47;;;;;19.20;101381.00;;;;2095701;28;20212;-54
2021/10/11 02:08:00;;;;;;;8.10;7.40;;;;;19.20;101383.00;;;;2091498;28;20208;-53
2021/10/11 02:09:01;;;;;;;9.02;8.32;;;;;19.20;101384.00;;;;2094698;28;20223;-53
2021/10/11 02:10:01;;;;;;;8.10;7.50;;;;;19.30;101382.00;;;;2094947;28;20767;-54
2021/10/11 02:11:02;;;;;;;8.73;8.03;;;;;19.20;101378.00;;;;2094948;28;20640;-54
2021/10/11 02:12:02;;;;;;;9.33;8.53;;;;;19.20;101381.00;;;;2095208;28;20292;-53
2021/10/11 02:13:02;;;;;;;9.20;8.40;;;;;19.20;101385.00;;;;2091609;28;20223;-53
2021/10/11 02:14:03;;;;;;;9.13;8.33;;;;;19.20;101380.00;;;;2095535;28;20255;-54
2021/10/11 02:15:04;;;;;;;9.03;8.30;;;;;19.30;101378.00;;;;2091546;28;20303;-54
2021/10/11 02:16:05;;;;;;;8.73;7.93;;;;;19.20;101384.00;;;;2089995;28;20689;-54
2021/10/11 02:17:05;;;;;;;8.93;8.13;;;;;19.20;101379.00;;;;2089521;28;20213;-54
2021/10/11 02:18:06;;;;;;;8.10;7.40;;;;;19.20;101381.00;;;;2091004;28;20215;-54
2021/10/11 02:19:06;;;;;;;9.00;8.30;;;;;19.20;101381.00;;;;2087168;28;20735;-54
2021/10/11 02:20:07;;;;;;;8.70;8.00;;;;;19.30;101371.00;;;;2087165;28;20217;-54
2021/10/11 02:21:08;;;;;;;8.63;7.93;;;;;19.20;101367.00;;;;2087315;28;20217;-54
2021/10/11 02:22:08;;;;;;;8.33;7.63;;;;;19.20;101374.00;;;;2087288;28;20709;-54
2021/10/11 02:23:09;;;;;;;9.37;8.60;;;;;19.20;101361.00;;;;2087328;28;20568;-54
2021/10/11 02:24:10;;;;;;;8.80;8.00;;;;;19.20;101371.00;;;;2087194;28;20221;-54
2021/10/11 02:25:10;;;;;;;9.20;8.47;;;;;19.20;101362.00;;;;2091928;28;20219;-53
2021/10/11 02:26:10;;;;;;;9.10;8.40;;;;;19.20;101361.00;;;;2094410;28;20303;-53
2021/10/11 02:27:11;;;;;;;9.70;8.90;;;;;19.20;101366.00;;;;2091522;28;20219;-53
2021/10/11 02:28:12;;;;;;;9.00;8.30;;;;;19.20;101362.00;;;;2093520;28;20215;-54
2021/10/11 02:29:12;;;;;;;8.77;8.00;;;;;19.30;101369.00;;;;2089644;28;20694;-53
2021/10/11 02:30:13;;;;;;;8.97;8.27;;;;;19.20;101367.00;;;;2083707;28;20752;-53
2021/10/11 02:31:13;;;;;;;9.17;8.37;;;;;19.20;101365.00;;;;2099528;28;20291;-54
2021/10/11 02:32:13;;;;;;;9.37;8.53;;;;;19.20;101371.00;;;;2096983;28;20200;-54
2021/10/11 02:33:14;;;;;;;9.73;8.90;;;;;19.20;101366.00;;;;2091635;28;20201;-54
2021/10/11 02:34:14;;;;;;;9.70;8.90;;;;;19.20;101373.00;;;;2094679;28;20757;-54
2021/10/11 02:35:16;;;;;;;8.30;7.60;;;;;19.20;101367.00;;;;2091590;28;20750;-54
2021/10/11 02:36:16;;;;;;;9.80;9.00;;;;;19.20;101373.00;;;;2093157;28;20208;-54
2021/10/11 02:37:17;;;;;;;9.17;8.43;;;;;19.20;101370.00;;;;2094559;28;20550;-54
2021/10/11 02:38:17;;;;;;;8.83;8.13;;;;;19.20;101364.00;;;;2095911;28;20215;-54
2021/10/11 02:39:17;;;;;;;9.43;8.63;;;;;19.20;101363.00;;;;2092951;28;20224;-54
2021/10/11 02:40:18;;;;;;;8.90;8.10;;;;;19.20;101367.00;;;;2092967;28;20323;-54
2021/10/11 02:41:18;;;;;;;9.47;8.67;;;;;19.20;101359.00;;;;2095868;28;20254;-54
2021/10/11 02:42:19;;;;;;;8.80;8.10;;;;;19.20;101366.00;;;;2097387;28;20255;-53
2021/10/11 02:43:19;;;;;;;9.47;8.67;;;;;19.20;101364.00;;;;2096151;28;20228;-54
2021/10/11 02:44:19;;;;;;;9.40;8.60;;;;;19.20;101357.00;;;;2089190;28;20208;-54
2021/10/11 02:45:20;;;;;;;9.60;8.80;;;;;19.30;101358.00;;;;2094230;28;20247;-54
2021/10/11 02:46:22;;;;;;;8.70;8.00;;;;;19.20;101366.00;;;;2092761;28;20216;-54
2021/10/11 02:47:23;;;;;;;8.60;7.90;;;;;19.20;101366.00;;;;2089458;28;20677;-54
2021/10/11 02:48:23;;;;;;;8.87;8.17;;;;;19.20;101365.00;;;;2089249;28;20217;-53
2021/10/11 02:49:23;;;;;;;8.77;8.03;;;;;19.20;101367.00;;;;2092041;28;20212;-53
2021/10/11 02:50:24;;;;;;;8.60;7.90;;;;;19.20;101367.00;;;;2087691;28;20616;-54
2021/10/11 02:51:24;;;;;;;8.67;7.97;;;;;19.20;101368.00;;;;2088190;28;20652;-54
2021/10/11 02:52:28;;;;;;;9.43;8.63;;;;;19.20;101373.00;;;;2094057;28;20215;-53
2021/10/11 02:53:28;;;;;;;9.57;8.68;;;;;19.20;101378.00;;;;2093794;28;20629;-54
2021/10/11 02:54:29;;;;;;;9.57;8.67;;;;;19.20;101374.00;;;;2092407;28;20299;-54
2021/10/11 02:55:29;;;;;;;9.73;8.83;;;;;19.20;101378.00;;;;2088081;28;20213;-54
2021/10/11 02:56:29;;;;;;;9.17;8.43;;;;;19.20;101381.00;;;;2088327;28;20215;-54
2021/10/11 02:57:30;;;;;;;8.70;8.00;;;;;19.20;101371.00;;;;2088683;28;20295;-53
2021/10/11 02:58:31;;;;;;;9.20;8.50;;;;;19.20;101379.00;;;;2087997;28;20205;-56
2021/10/11 02:59:31;;;;;;;8.97;8.20;;;;;19.20;101380.00;;;;2093359;28;20262;-55
2021/10/11 03:00:31;;;;;;;9.33;8.53;;;;;19.20;101382.00;;;;2093023;28;20262;-55
2021/10/11 03:01:32;;;;;;;9.20;8.40;;;;;19.20;101380.00;;;;2093123;28;20292;-54
2021/10/11 03:02:33;;;;;;;9.00;8.20;;;;;19.20;101375.00;;;;2090642;28;20685;-53
2021/10/11 03:03:33;;;;;;;9.10;8.40;;;;;19.30;101378.00;;;;2088012;28;20205;-54
2021/10/11 03:04:35;;;;;;;8.17;7.50;;;;;19.30;101375.00;;;;2088143;28;20221;-54
2021/10/11 03:05:36;;;;;;;8.70;8.00;;;;;19.20;101375.00;;;;2088711;28;20690;-54
2021/10/11 03:06:36;;;;;;;9.20;8.40;;;;;19.00;101371.00;;;;2089553;28;20213;-54
2021/10/11 03:07:36;;;;;;;9.33;8.53;;;;;19.20;101376.00;;;;2097288;28;20212;-53
2021/10/11 03:08:37;;;;;;;8.33;7.63;;;;;19.20;101378.00;;;;2093118;28;20208;-54
2021/10/11 03:09:38;;;;;;;9.63;8.80;;;;;19.20;101377.00;;;;2094736;28;20216;-54
2021/10/11 03:10:38;;;;;;;8.63;7.93;;;;;19.20;101383.00;;;;2088675;28;20217;-54
2021/10/11 03:11:38;;;;;;;9.13;8.33;;;;;19.20;101373.00;;;;2088773;28;20462;-54
2021/10/11 03:12:39;;;;;;;8.90;8.10;;;;;19.20;101377.00;;;;2096300;28;20303;-53
2021/10/11 03:13:39;;;;;;;9.03;8.33;;;;;19.20;101390.00;;;;2093377;28;20695;-53
2021/10/11 03:14:39;;;;;;;9.07;8.27;;;;;19.20;101384.00;;;;2091982;28;20740;-54
2021/10/11 03:15:40;;;;;;;8.40;7.70;;;;;19.20;101384.00;;;;2088472;28;20686;-53
2021/10/11 03:16:41;;;;;;;8.70;8.00;;;;;19.20;101385.00;;;;2090015;28;20753;-54
2021/10/11 03:17:41;;;;;;;9.40;8.60;;;;;19.20;101388.00;;;;2089930;28;20278;-53
2021/10/11 03:18:42;;;;;;;9.10;8.30;;;;;19.20;101388.00;;;;2089452;28;20296;-54
2021/10/11 03:19:42;;;;;;;9.00;8.30;;;;;19.20;101390.00;;;;2090773;28;20662;-54
2021/10/11 03:20:43;;;;;;;9.20;8.40;;;;;19.20;101384.00;;;;2092367;28;20216;-53
2021/10/11 03:21:44;;;;;;;8.20;7.50;;;;;19.20;101388.00;;;;2092557;28;20215;-53
2021/10/11 03:22:44;;;;;;;8.70;7.90;;;;;19.20;101394.00;;;;2091386;28;20227;-54
2021/10/11 03:23:45;;;;;;;9.27;8.50;;;;;19.20;101394.00;;;;2088154;28;20211;-53
2021/10/11 03:24:45;;;;;;;9.73;8.93;;;;;19.20;101395.00;;;;2091053;28;20216;-54
2021/10/11 03:25:45;;;;;;;8.63;7.93;;;;;19.20;101390.00;;;;2088320;28;20292;-54
2021/10/11 03:26:46;;;;;;;8.67;7.97;;;;;19.20;101386.00;;;;2088427;28;20209;-54
2021/10/11 03:27:46;;;;;;;9.47;8.60;;;;;19.20;101385.00;;;;2087952;28;20283;-54
2021/10/11 03:28:47;;;;;;;9.80;8.80;;;;;19.20;101390.00;;;;2090917;28;20587;-54
2021/10/11 03:29:47;;;;;;;8.63;7.87;;;;;19.20;101380.00;;;;2092154;28;20584;-54
2021/10/11 03:30:48;;;;;;;8.27;7.57;;;;;19.20;101377.00;;;;2092717;28;20212;-54
2021/10/11 03:31:48;;;;;;;8.70;8.00;;;;;19.20;101381.00;;;;2096500;28;20215;-54
2021/10/11 03:32:48;;;;;;;9.53;8.73;;;;;19.20;101384.00;;;;2096060;28;20216;-54
2021/10/11 03:33:49;;;;;;;8.30;7.70;;;;;19.20;101390.00;;;;2089957;28;20282;-53
2021/10/11 03:34:50;;;;;;;8.80;8.10;;;;;19.20;101384.00;;;;2090105;28;20296;-54
2021/10/11 03:35:50;;;;;;;8.73;7.93;;;;;19.20;101382.00;;;;2094361;28;20270;-54
2021/10/11 03:36:51;;;;;;;8.97;8.27;;;;;19.20;101384.00;;;;2088737;28;20223;-54
2021/10/11 03:37:51;;;;;;;8.20;7.50;;;;;19.20;101386.00;;;;2092479;28;20263;-54
2021/10/11 03:38:52;;;;;;;8.93;8.23;;;;;19.20;101381.00;;;;2092190;28;20694;-54
2021/10/11 03:39:52;;;;;;;9.00;8.30;;;;;19.20;101382.00;;;;2088382;28;20579;-54
2021/10/11 03:40:57;;;;;;;8.23;7.53;;;;;19.20;101385.00;;;;2095921;28;20205;-54
2021/10/11 03:41:57;;;;;;;8.80;8.05;;;;;19.20;101383.00;;;;2087516;28;20689;-54
2021/10/11 03:42:58;;;;;;;9.00;8.20;;;;;19.20;101380.00;;;;2085934;28;20299;-54
2021/10/11 03:43:58;;;;;;;8.63;7.93;;;;;19.20;101386.00;;;;2088454;28;20209;-54
2021/10/11 03:44:58;;;;;;;8.27;7.57;;;;;19.20;101388.00;;;;2088711;28;20213;-54
2021/10/11 03:45:59;;;;;;;8.97;8.27;;;;;19.20;101384.00;;;;2092032;28;20830;-54
2021/10/11 03:47:00;;;;;;;8.98;8.27;;;;;19.20;101384.00;;;;2092456;28;20341;-54
2021/10/11 03:48:01;;;;;;;9.33;8.60;;;;;19.20;101380.00;;;;2089499;28;20573;-54
2021/10/11 03:49:02;;;;;;;9.30;8.50;;;;;19.20;101390.00;;;;2092506;28;20216;-54
2021/10/11 03:50:03;;;;;;;9.30;8.45;;;;;19.20;101386.00;;;;2090787;28;20451;-53
2021/10/11 03:51:03;;;;;;;8.13;7.43;;;;;19.20;101383.00;;;;2088415;28;20213;-53
2021/10/11 03:52:04;;;;;;;7.93;7.33;;;;;19.20;101381.00;;;;2095155;28;20299;-54
2021/10/11 03:53:04;;;;;;;9.10;8.30;;;;;19.20;101375.00;;;;2093363;28;20213;-54
2021/10/11 03:54:05;;;;;;;9.30;8.57;;;;;19.20;101382.00;;;;2088456;28;20474;-54
2021/10/11 03:55:05;;;;;;;8.40;7.70;;;;;19.20;101376.00;;;;2092180;28;20301;-54
2021/10/11 03:56:06;;;;;;;9.20;8.40;;;;;19.20;101374.00;;;;2092224;28;20219;-54
2021/10/11 03:57:06;;;;;;;8.23;7.60;;;;;19.20;101373.00;;;;2092333;28;20319;-54
2021/10/11 03:58:07;;;;;;;8.43;7.73;;;;;19.20;101368.00;;;;2088578;28;20219;-54
2021/10/11 03:59:08;;;;;;;8.70;7.90;;;;;19.20;101363.00;;;;2094228;28;20212;-54
2021/10/11 04:00:09;;;;;;;8.53;7.83;;;;;19.20;101368.00;;;;2089527;28;20217;-54
2021/10/11 04:01:09;;;;;;;8.53;7.83;;;;;19.20;101365.00;;;;2094377;28;20216;-56
2021/10/11 04:02:09;;;;;;;9.13;8.37;;;;;19.20;101363.00;;;;2092277;28;20910;-55
2021/10/11 04:03:10;;;;;;;8.30;7.60;;;;;19.20;101360.00;;;;2096220;28;20212;-58
2021/10/11 04:04:11;;;;;;;8.17;7.47;;;;;19.20;101359.00;;;;2091980;28;20209;-56
2021/10/11 04:05:12;;;;;;;9.00;8.30;;;;;19.20;101350.00;;;;2091992;28;20219;-54
2021/10/11 04:06:12;;;;;;;8.47;7.77;;;;;19.20;101350.00;;;;2093549;28;20712;-54
2021/10/11 04:07:15;;;;;;;8.40;7.80;;;;;19.20;101357.00;;;;2096260;28;20228;-54
2021/10/11 04:08:19;;;;;;;8.05;7.45;;;;;19.20;101349.00;;;;2093397;28;20299;-54
2021/10/11 04:09:26;;;;;;;8.80;8.10;;;;;19.20;101349.00;;;;2091598;28;20214;-54
2021/10/11 04:10:31;;;;;;;9.10;8.30;;;;;19.20;101346.00;;;;2087835;28;20783;-54
2021/10/11 04:11:33;;;;;;;8.27;7.60;;;;;19.20;101349.00;;;;2091291;28;20220;-53
2021/10/11 04:12:35;;;;;;;8.88;8.18;;;;;19.20;101341.00;;;;2081442;28;20216;-53
2021/10/11 04:13:36;;;;;;;7.63;7.03;;;;;19.20;101349.00;;;;2087717;28;20953;-54
2021/10/11 04:14:36;;;;;;;8.45;7.75;;;;;19.20;101346.00;;;;2088332;28;20602;-54
2021/10/11 04:15:37;;;;;;;8.33;7.63;;;;;19.20;101345.00;;;;2092255;28;20223;-54
2021/10/11 04:16:37;;;;;;;8.23;7.53;;;;;19.20;101346.00;;;;2090428;28;20221;-54
2021/10/11 04:17:38;;;;;;;9.40;8.10;;;;;19.20;101350.00;;;;2092118;28;20220;-54
2021/10/11 04:18:38;;;;;;;7.93;7.23;;;;;19.20;101342.00;;;;2089697;28;20300;-53
2021/10/11 04:19:39;;;;;;;8.77;8.07;;;;;19.20;101337.00;;;;2087446;28;20455;-54
2021/10/11 04:20:39;;;;;;;8.70;8.00;;;;;19.20;101347.00;;;;2094701;28;20216;-54
2021/10/11 04:21:42;;;;;;;7.87;7.17;;;;;19.20;101344.00;;;;2082100;28;20219;-54
2021/10/11 04:22:43;;;;;;;8.57;7.78;;;;;19.20;101345.00;;;;2094969;28;20262;-56
2021/10/11 04:23:43;;;;;;;7.93;7.33;;;;;19.20;101345.00;;;;2092880;28;20208;-56
2021/10/11 04:24:43;;;;;;;7.57;6.97;;;;;19.20;101340.00;;;;2092736;28;20212;-57
2021/10/11 04:25:44;;;;;;;8.20;7.50;;;;;19.20;101341.00;;;;2094908;28;20291;-54
2021/10/11 04:26:46;;;;;;;7.97;7.27;;;;;19.20;101351.00;;;;2092076;28;20742;-54
2021/10/11 04:27:47;;;;;;;8.13;7.40;;;;;19.20;101348.00;;;;2092745;28;20681;-53
2021/10/11 04:28:47;;;;;;;7.70;7.10;;;;;19.20;101360.00;;;;2087513;28;20232;-54
2021/10/11 04:29:47;;;;;;;7.90;7.27;;;;;19.20;101362.00;;;;2091055;28;20304;-53
2021/10/11 04:30:48;;;;;;;7.20;6.70;;;;;19.20;101359.00;;;;2087869;28;20283;-54
2021/10/11 04:31:48;;;;;;;7.80;7.10;;;;;19.20;101369.00;;;;2094734;28;20220;-54
2021/10/11 04:32:48;;;;;;;7.67;7.07;;;;;19.20;101366.00;;;;2088940;28;20267;-52
2021/10/11 04:33:49;;;;;;;7.90;7.20;;;;;19.20;101359.00;;;;2091915;28;20225;-54
2021/10/11 04:34:49;;;;;;;7.93;7.23;;;;;19.20;101361.00;;;;2086548;28;20217;-54
2021/10/11 04:35:50;;;;;;;7.53;6.93;;;;;19.20;101361.00;;;;2090397;28;20763;-54
2021/10/11 04:36:50;;;;;;;8.00;7.40;;;;;19.20;101361.00;;;;2095698;28;20697;-53
2021/10/11 04:37:51;;;;;;;7.23;6.70;;;;;19.20;101363.00;;;;2095348;28;20220;-53
2021/10/11 04:38:53;;;;;;;7.10;6.60;;;;;19.20;101366.00;;;;2087985;28;20216;-54
2021/10/11 04:39:53;;;;;;;7.50;6.90;;;;;19.20;101367.00;;;;2095704;28;20217;-53
2021/10/11 04:40:53;;;;;;;7.90;7.20;;;;;19.20;101365.00;;;;2091556;28;20308;-54
2021/10/11 04:41:54;;;;;;;8.70;7.90;;;;;19.20;101361.00;;;;2092239;28;20219;-54
2021/10/11 04:42:54;;;;;;;8.50;7.70;;;;;19.20;101374.00;;;;2094277;28;20212;-54
2021/10/11 04:43:56;;;;;;;7.13;6.57;;;;;19.20;101375.00;;;;2094502;28;20235;-54
2021/10/11 04:44:56;;;;;;;7.25;6.55;;;;;19.20;101367.00;;;;2088651;28;20213;-54
2021/10/11 04:45:56;;;;;;;7.30;6.73;;;;;19.20;101374.00;;;;2089468;28;20221;-54
2021/10/11 04:46:57;;;;;;;7.40;6.80;;;;;19.20;101373.00;;;;2089457;28;20300;-54
2021/10/11 04:47:58;;;;;;;7.53;6.93;;;;;19.20;101379.00;;;;2089089;28;20209;-54
2021/10/11 04:48:58;;;;;;;7.60;6.95;;;;;19.20;101374.00;;;;2092617;28;20265;-54
2021/10/11 04:49:59;;;;;;;7.50;6.90;;;;;19.20;101374.00;;;;2096305;28;21052;-54
2021/10/11 04:50:59;;;;;;;7.07;6.57;;;;;19.20;101371.00;;;;2094244;28;20657;-53
2021/10/11 04:52:00;;;;;;;7.77;7.10;;;;;19.20;101376.00;;;;2091860;28;20213;-53
2021/10/11 04:53:00;;;;;;;7.20;6.60;;;;;19.20;101382.00;;;;2091841;28;20221;-54
2021/10/11 04:54:01;;;;;;;7.13;6.63;;;;;19.20;101384.00;;;;2087765;28;20231;-53
2021/10/11 04:55:01;;;;;;;7.17;6.67;;;;;19.20;101381.00;;;;2090500;28;21002;-54
2021/10/11 04:56:02;;;;;;;7.07;6.47;;;;;19.20;101387.00;;;;2092055;28;20219;-54
2021/10/11 04:57:02;;;;;;;6.53;6.03;;;;;19.20;101386.00;;;;2096067;28;20208;-53
2021/10/11 04:58:03;;;;;;;7.30;6.70;;;;;19.20;101381.00;;;;2094362;28;20220;-54
2021/10/11 04:59:03;;;;;;;7.47;6.87;;;;;19.20;101384.00;;;;2087302;28;20346;-54
2021/10/11 05:00:05;;;;;;;7.30;6.60;;;;;19.20;101386.00;;;;2087385;28;20274;-53